Time;durP1;ratioP1;P1;durP2;ratioP2;P2;SDS_P1;SDS_P2;PMS_P1;PMS_P2;Temp;Humidity;BMP_temperature;BMP_pressure;BME280_temperature;BME280_humidity;BME280_pressure;Samples;Min_cycle;Max_cycle;Signal;HPM_P1;HPM_P2
2021/11/18 00:01:25;;;;;;;26.75;6.55;;;;;;;6.62;100.00;102732.66;5014529;28;20041;-75
2021/11/18 00:03:51;;;;;;;20.75;6.10;;;;;;;6.60;100.00;102736.00;5012178;28;20030;-75
2021/11/18 00:06:17;;;;;;;30.88;6.90;;;;;;;6.57;100.00;102739.31;5014699;28;20022;-75
2021/11/18 00:08:43;;;;;;;23.75;8.73;;;;;;;6.52;100.00;102736.38;5015230;28;20108;-74
2021/11/18 00:11:10;;;;;;;37.72;7.88;;;;;;;6.52;100.00;102736.38;5012572;28;20026;-74
2021/11/18 00:13:38;;;;;;;30.88;7.20;;;;;;;6.53;100.00;102747.78;5012794;28;20048;-74
2021/11/18 00:16:05;;;;;;;26.17;6.82;;;;;;;6.48;100.00;102743.94;5013623;28;20037;-75
2021/11/18 00:18:34;;;;;;;29.02;6.75;;;;;;;6.46;100.00;102746.47;5005319;28;20030;-74
2021/11/18 00:21:03;;;;;;;26.30;5.78;;;;;;;6.44;100.00;102742.84;5014936;28;20088;-75
2021/11/18 00:23:36;;;;;;;30.48;7.97;;;;;;;6.42;100.00;102736.63;5002565;28;20508;-75
2021/11/18 00:26:04;;;;;;;28.90;6.77;;;;;;;6.40;100.00;102741.75;5009523;28;20080;-75
2021/11/18 00:28:29;;;;;;;22.75;5.88;;;;;;;6.39;100.00;102754.75;5035305;28;20306;-73
2021/11/18 00:30:55;;;;;;;29.27;5.82;;;;;;;6.32;100.00;102748.22;5016556;28;20029;-74
2021/11/18 00:33:21;;;;;;;20.77;5.90;;;;;;;6.27;100.00;102749.63;5011807;28;20034;-75
2021/11/18 00:35:47;;;;;;;24.02;6.00;;;;;;;6.23;100.00;102745.88;5011681;28;20516;-75
2021/11/18 00:38:12;;;;;;;34.55;6.60;;;;;;;6.20;100.00;102745.69;5012710;28;20045;-75
2021/11/18 00:40:40;;;;;;;33.42;7.13;;;;;;;6.17;100.00;102753.34;5011179;28;20040;-75
2021/11/18 00:43:08;;;;;;;20.25;5.32;;;;;;;6.15;100.00;102759.28;5011502;28;21635;-75
2021/11/18 00:45:34;;;;;;;28.85;5.35;;;;;;;6.11;100.00;102752.03;5013302;28;20052;-75
2021/11/18 00:47:59;;;;;;;26.27;5.88;;;;;;;6.12;100.00;102753.81;5012969;28;20017;-74
2021/11/18 00:50:41;;;;;;;33.97;7.65;;;;;;;6.11;100.00;102752.94;5016616;28;20120;-75
2021/11/18 00:53:06;;;;;;;33.97;5.90;;;;;;;6.10;100.00;102739.75;5008482;28;20026;-75
2021/11/18 00:55:33;;;;;;;27.30;6.43;;;;;;;6.12;100.00;102733.84;5012033;28;20044;-74
2021/11/18 00:57:58;;;;;;;35.55;6.63;;;;;;;6.14;100.00;102739.16;5013959;28;20029;-75
2021/11/18 01:00:30;;;;;;;29.92;5.85;;;;;;;6.13;100.00;102743.50;5008933;28;20034;-74
2021/11/18 01:02:56;;;;;;;28.50;5.78;;;;;;;6.12;100.00;102748.59;5013000;28;20049;-76
2021/11/18 01:05:27;;;;;;;30.67;5.97;;;;;;;6.10;100.00;102755.44;5011674;28;20048;-75
2021/11/18 01:07:54;;;;;;;25.98;5.00;;;;;;;6.11;100.00;102767.72;5011833;28;20045;-74
2021/11/18 01:10:21;;;;;;;22.42;5.40;;;;;;;6.15;100.00;102767.13;5013444;28;20038;-75
2021/11/18 01:12:47;;;;;;;33.78;6.82;;;;;;;6.19;100.00;102766.50;5012742;28;20148;-75
2021/11/18 01:15:20;;;;;;;32.88;5.57;;;;;;;6.19;100.00;102756.94;5012349;28;20108;-74
2021/11/18 01:17:46;;;;;;;36.45;6.63;;;;;;;6.18;100.00;102762.97;5012284;28;20045;-74
2021/11/18 01:20:14;;;;;;;26.02;5.65;;;;;;;6.18;100.00;102764.69;5012496;28;20053;-75
2021/11/18 01:22:41;;;;;;;28.33;5.22;;;;;;;6.20;100.00;102757.84;5012746;28;20045;-75
2021/11/18 01:25:09;;;;;;;36.65;6.68;;;;;;;6.21;100.00;102764.88;5012708;28;20046;-75
2021/11/18 01:27:34;;;;;;;30.17;6.32;;;;;;;6.22;100.00;102756.25;5011578;28;20481;-74
2021/11/18 01:29:59;;;;;;;29.85;6.50;;;;;;;6.25;100.00;102751.22;5010167;28;20057;-74
2021/11/18 01:32:25;;;;;;;27.45;5.88;;;;;;;6.25;100.00;102751.22;5013408;28;20041;-74
2021/11/18 01:34:50;;;;;;;26.13;4.95;;;;;;;6.25;100.00;102759.06;5012513;28;20061;-74
2021/11/18 01:37:15;;;;;;;33.78;6.97;;;;;;;6.23;100.00;102763.28;5013070;28;20493;-74
2021/11/18 01:39:41;;;;;;;34.03;5.60;;;;;;;6.26;100.00;102757.38;5012661;28;20815;-76
2021/11/18 01:42:09;;;;;;;30.17;5.13;;;;;;;6.23;100.00;102769.41;5017895;28;20028;-74
2021/11/18 01:44:38;;;;;;;34.65;5.53;;;;;;;6.23;100.00;102766.81;5015430;28;20109;-74
2021/11/18 01:47:05;;;;;;;33.60;5.35;;;;;;;6.23;100.00;102766.81;5009335;28;20030;-75
2021/11/18 01:49:31;;;;;;;34.17;5.28;;;;;;;6.23;100.00;102776.38;5012797;28;20136;-74
2021/11/18 01:52:00;;;;;;;35.55;5.28;;;;;;;6.23;100.00;102778.97;5012123;28;20029;-75
2021/11/18 01:54:29;;;;;;;33.28;6.35;;;;;;;6.24;100.00;102775.56;5011850;28;20033;-75
2021/11/18 01:56:55;;;;;;;34.33;6.40;;;;;;;6.26;100.00;102784.41;5012548;28;20163;-75
2021/11/18 01:59:25;;;;;;;32.05;6.05;;;;;;;6.28;100.00;102789.72;5013524;28;20163;-75
2021/11/18 02:01:55;;;;;;;42.40;6.32;;;;;;;6.28;100.00;102788.03;5014488;28;20432;-75
2021/11/18 02:04:24;;;;;;;36.38;5.50;;;;;;;6.33;100.00;102791.81;5013131;28;20022;-75
2021/11/18 02:06:54;;;;;;;33.55;7.43;;;;;;;6.36;100.00;102792.06;5011109;28;20429;-75
2021/11/18 02:09:22;;;;;;;32.63;6.15;;;;;;;6.38;100.00;102800.00;5006943;28;20029;-75
2021/11/18 02:11:54;;;;;;;32.65;5.82;;;;;;;6.39;100.00;102794.84;5014050;28;20096;-74
2021/11/18 02:14:23;;;;;;;26.65;5.75;;;;;;;6.41;100.00;102790.63;5013003;28;20037;-75
2021/11/18 02:16:48;;;;;;;40.78;5.43;;;;;;;6.50;100.00;102794.66;5013059;28;20378;-75
2021/11/18 02:19:17;;;;;;;40.50;5.05;;;;;;;6.62;100.00;102789.28;5010972;28;20052;-75
2021/11/18 02:21:49;;;;;;;35.03;5.35;;;;;;;6.69;100.00;102787.19;5011529;28;20080;-75
2021/11/18 02:24:28;;;;;;;31.80;5.68;;;;;;;6.84;100.00;102791.59;5009976;28;20073;-75
2021/11/18 02:26:54;;;;;;;35.92;5.53;;;;;;;6.93;100.00;102784.28;5027486;28;20037;-75
2021/11/18 02:29:21;;;;;;;29.90;4.88;;;;;;;6.98;100.00;102790.72;5012795;28;20034;-75
2021/11/18 02:31:52;;;;;;;36.13;4.90;;;;;;;6.99;100.00;102791.66;5012157;28;20415;-75
2021/11/18 02:34:21;;;;;;;39.85;6.90;;;;;;;7.03;100.00;102784.06;5012309;28;20056;-75
2021/11/18 02:36:47;;;;;;;29.08;4.78;;;;;;;7.08;100.00;102787.88;5015278;28;20036;-76
2021/11/18 02:39:12;;;;;;;29.23;4.72;;;;;;;7.14;100.00;102789.09;5015191;28;20149;-75
2021/11/18 02:41:39;;;;;;;33.25;4.93;;;;;;;7.19;100.00;102790.25;5015945;28;20152;-75
2021/11/18 02:44:06;;;;;;;28.77;4.30;;;;;;;7.24;100.00;102794.06;5015431;28;20421;-75
2021/11/18 02:46:33;;;;;;;27.50;5.25;;;;;;;7.26;100.00;102788.09;5015743;28;20033;-75
2021/11/18 02:48:59;;;;;;;34.92;5.72;;;;;;;7.26;100.00;102792.44;5029980;28;20108;-74
2021/11/18 02:51:24;;;;;;;31.02;5.80;;;;;;;7.25;100.00;102788.91;5013198;28;20070;-75
2021/11/18 02:53:50;;;;;;;32.22;4.38;;;;;;;7.23;100.00;102787.94;5014785;28;20060;-76
2021/11/18 02:56:16;;;;;;;30.05;4.72;;;;;;;7.24;100.00;102783.59;5011855;28;20359;-75
2021/11/18 02:58:42;;;;;;;18.08;3.63;;;;;;;7.24;100.00;102778.34;5014664;28;20450;-75
2021/11/18 03:01:15;;;;;;;32.22;4.65;;;;;;;7.23;100.00;102777.44;5011146;28;20045;-75
2021/11/18 03:03:42;;;;;;;34.45;4.88;;;;;;;7.22;100.00;102774.75;5013937;28;20038;-75
2021/11/18 03:06:08;;;;;;;25.83;4.97;;;;;;;7.20;100.00;102774.66;5016520;28;20034;-75
2021/11/18 03:08:33;;;;;;;26.23;4.45;;;;;;;7.19;100.00;102778.06;5015546;28;20053;-75
2021/11/18 03:10:59;;;;;;;26.48;4.65;;;;;;;7.18;100.00;102788.47;5015420;28;20481;-75
2021/11/18 03:13:27;;;;;;;31.67;4.88;;;;;;;7.16;100.00;102787.44;5013766;28;20121;-76
2021/11/18 03:15:53;;;;;;;43.97;5.25;;;;;;;7.16;100.00;102784.81;5015770;28;20026;-76
2021/11/18 03:18:22;;;;;;;27.83;4.80;;;;;;;7.15;100.00;102783.00;5018758;28;20088;-75
2021/11/18 03:20:48;;;;;;;30.00;4.30;;;;;;;7.14;100.00;102778.59;5011047;28;20045;-75
2021/11/18 03:23:13;;;;;;;29.35;4.80;;;;;;;7.13;100.00;102774.16;5017134;28;20404;-75
2021/11/18 03:25:40;;;;;;;22.52;4.70;;;;;;;7.14;100.00;102770.75;5011552;28;20026;-75
2021/11/18 03:28:07;;;;;;;23.83;4.88;;;;;;;7.15;100.00;102777.78;5014808;28;20034;-75
2021/11/18 03:30:36;;;;;;;30.13;4.82;;;;;;;7.15;100.00;102772.53;5014662;28;20451;-74
2021/11/18 03:33:10;;;;;;;26.60;5.90;;;;;;;7.15;100.00;102770.84;5010684;28;20116;-74
2021/11/18 03:35:36;;;;;;;32.22;5.65;;;;;;;7.14;100.00;102776.88;5013570;28;20041;-75
2021/11/18 03:38:02;;;;;;;29.77;5.07;;;;;;;7.16;100.00;102776.97;5011544;28;20030;-75
2021/11/18 03:40:28;;;;;;;25.48;5.15;;;;;;;7.16;100.00;102777.91;5013146;28;20168;-75
2021/11/18 03:42:55;;;;;;;32.85;5.07;;;;;;;7.22;100.00;102785.22;5013230;28;20565;-75
2021/11/18 03:45:26;;;;;;;29.92;4.45;;;;;;;7.23;100.00;102776.53;5015276;28;20100;-74
2021/11/18 03:47:52;;;;;;;22.00;4.00;;;;;;;7.22;100.00;102769.50;5011374;28;20112;-75
2021/11/18 03:50:18;;;;;;;31.13;6.07;;;;;;;7.22;100.00;102774.75;5013354;28;20041;-75
2021/11/18 03:52:43;;;;;;;21.98;3.92;;;;;;;7.21;100.00;102776.44;5012534;28;20373;-75
2021/11/18 03:55:11;;;;;;;23.10;4.00;;;;;;;7.21;100.00;102781.69;5012713;28;20122;-75
2021/11/18 03:57:37;;;;;;;27.60;4.60;;;;;;;7.16;100.00;102774.34;5014030;28;20033;-75
2021/11/18 04:00:15;;;;;;;28.08;5.72;;;;;;;7.10;100.00;102777.50;5013741;28;20754;-75
2021/11/18 04:02:40;;;;;;;31.88;5.15;;;;;;;7.07;100.00;102769.47;5013870;28;20029;-75
2021/11/18 04:05:06;;;;;;;20.38;4.82;;;;;;;7.01;100.00;102776.94;5015636;28;20044;-75
2021/11/18 04:07:38;;;;;;;35.10;5.22;;;;;;;6.98;100.00;102780.25;5012616;28;20493;-74
2021/11/18 04:10:05;;;;;;;26.73;4.18;;;;;;;6.95;100.00;102785.31;5013194;28;20116;-75
2021/11/18 04:12:31;;;;;;;30.70;4.88;;;;;;;6.93;100.00;102781.66;5014464;28;20040;-76
2021/11/18 04:14:56;;;;;;;27.65;4.90;;;;;;;6.92;100.00;102782.50;5012370;28;20021;-75
2021/11/18 04:17:21;;;;;;;25.52;5.50;;;;;;;6.88;100.00;102788.34;5014139;28;20037;-75
2021/11/18 04:19:47;;;;;;;28.67;4.57;;;;;;;6.81;100.00;102780.91;5014525;28;20050;-76
2021/11/18 04:22:12;;;;;;;29.52;4.38;;;;;;;6.79;100.00;102787.75;5014398;28;20042;-75
2021/11/18 04:24:40;;;;;;;26.35;4.50;;;;;;;6.71;100.00;102782.03;5014307;28;20539;-74
2021/11/18 04:27:06;;;;;;;33.47;4.95;;;;;;;6.62;100.00;102778.81;5011826;28;20394;-75
2021/11/18 04:29:32;;;;;;;18.30;4.00;;;;;;;6.55;100.00;102780.16;5013872;28;20045;-75
2021/11/18 04:32:16;;;;;;;27.75;5.07;;;;;;;6.48;100.00;102772.72;5013328;28;20060;-75
2021/11/18 04:34:41;;;;;;;37.45;5.22;;;;;;;6.46;100.00;102769.09;5014388;28;20079;-74
2021/11/18 04:37:07;;;;;;;30.13;4.97;;;;;;;6.41;100.00;102758.34;5014278;28;20398;-75
2021/11/18 04:39:33;;;;;;;30.40;5.43;;;;;;;6.38;100.00;102759.03;5012635;28;20087;-74
2021/11/18 04:41:59;;;;;;;33.00;5.25;;;;;;;6.40;100.00;102756.53;5014654;28;20481;-75
2021/11/18 04:44:25;;;;;;;31.20;4.78;;;;;;;6.40;100.00;102754.84;5011335;28;20025;-75
2021/11/18 04:46:53;;;;;;;42.10;4.97;;;;;;;6.39;100.00;102760.88;5012483;28;20026;-76
2021/11/18 04:49:18;;;;;;;37.70;6.18;;;;;;;6.35;100.00;102757.97;5012625;28;20096;-75
2021/11/18 04:51:43;;;;;;;26.67;4.32;;;;;;;6.32;100.00;102745.59;5011739;28;20046;-74
2021/11/18 04:54:09;;;;;;;37.13;6.47;;;;;;;6.28;100.00;102748.81;5012416;28;20123;-75
2021/11/18 04:56:36;;;;;;;26.50;4.97;;;;;;;6.30;100.00;102744.56;5010149;28;20021;-74
2021/11/18 04:59:05;;;;;;;29.38;6.18;;;;;;;6.35;100.00;102747.50;5009716;28;20027;-75
2021/11/18 05:01:30;;;;;;;36.03;6.38;;;;;;;6.45;100.00;102749.00;5014253;28;20034;-74
2021/11/18 05:03:56;;;;;;;36.10;4.45;;;;;;;6.54;100.00;102762.66;5016049;28;20080;-75
2021/11/18 05:06:22;;;;;;;32.17;5.00;;;;;;;6.57;100.00;102765.47;5013497;28;20030;-75
2021/11/18 05:08:48;;;;;;;20.80;5.10;;;;;;;6.67;100.00;102766.94;5012896;28;20045;-74
2021/11/18 05:11:14;;;;;;;26.27;4.35;;;;;;;6.69;100.00;102771.47;5011569;28;20540;-75
2021/11/18 05:13:40;;;;;;;28.15;4.63;;;;;;;6.74;100.00;102770.06;5012486;28;20037;-75
2021/11/18 05:16:09;;;;;;;25.95;4.72;;;;;;;6.75;100.00;102770.97;5011429;28;20037;-76
2021/11/18 05:18:34;;;;;;;32.92;5.18;;;;;;;6.78;100.00;102767.63;5009441;28;20026;-76
2021/11/18 05:21:00;;;;;;;30.23;4.30;;;;;;;6.79;100.00;102761.59;5012540;28;20105;-75
2021/11/18 05:23:27;;;;;;;24.50;4.80;;;;;;;6.88;100.00;102762.19;5028074;28;20121;-75
2021/11/18 05:25:53;;;;;;;27.13;4.80;;;;;;;6.89;100.00;102758.72;5010631;28;20091;-75
2021/11/18 05:28:18;;;;;;;35.40;4.97;;;;;;;6.91;100.00;102763.25;5012160;28;20033;-75
2021/11/18 05:30:44;;;;;;;28.17;4.93;;;;;;;6.98;100.00;102753.19;5012077;28;20029;-74
2021/11/18 05:33:13;;;;;;;28.65;5.13;;;;;;;7.04;100.00;102762.31;5012630;28;20361;-74
2021/11/18 05:35:39;;;;;;;26.35;4.78;;;;;;;7.06;100.00;102758.06;5012164;28;20072;-75
2021/11/18 05:38:05;;;;;;;18.38;4.22;;;;;;;7.12;100.00;102765.41;5015494;28;20026;-75
2021/11/18 05:40:31;;;;;;;37.03;4.80;;;;;;;7.16;100.00;102766.50;5011731;28;21252;-75
2021/11/18 05:42:57;;;;;;;29.13;5.32;;;;;;;7.19;100.00;102774.53;5013286;28;20057;-75
2021/11/18 05:45:26;;;;;;;29.15;4.75;;;;;;;7.21;100.00;102773.81;5010940;28;20044;-74
2021/11/18 05:47:53;;;;;;;33.30;6.55;;;;;;;7.24;100.00;102762.63;5008587;28;20026;-75
2021/11/18 05:50:20;;;;;;;38.20;8.05;;;;;;;7.23;100.00;102760.81;5011497;28;20540;-76
2021/11/18 05:52:46;;;;;;;34.17;4.55;;;;;;;7.25;100.00;102765.34;5026875;28;20037;-74
2021/11/18 05:55:13;;;;;;;36.67;5.88;;;;;;;7.29;100.00;102761.22;5017387;28;20037;-76
2021/11/18 05:57:38;;;;;;;30.58;5.00;;;;;;;7.31;100.00;102758.69;5011923;28;20033;-74
2021/11/18 06:00:09;;;;;;;30.13;6.18;;;;;;;7.32;100.00;102765.72;5013946;28;20408;-76
2021/11/18 06:02:34;;;;;;;32.67;5.93;;;;;;;7.37;100.00;102767.81;5011439;28;20422;-76
2021/11/18 06:05:00;;;;;;;36.08;6.50;;;;;;;7.38;100.00;102774.88;5009764;28;20076;-75
2021/11/18 06:07:26;;;;;;;34.88;5.68;;;;;;;7.39;100.00;102783.63;5010270;28;20052;-76
2021/11/18 06:09:51;;;;;;;36.05;5.68;;;;;;;7.41;100.00;102766.28;5018012;28;20053;-75
2021/11/18 06:12:17;;;;;;;38.22;6.38;;;;;;;7.41;100.00;102774.16;5015824;28;20378;-76
2021/11/18 06:14:42;;;;;;;31.50;6.03;;;;;;;7.41;100.00;102776.78;5017195;28;20022;-76
2021/11/18 06:17:08;;;;;;;31.00;5.82;;;;;;;7.37;100.00;102780.91;5021219;28;20030;-75
2021/11/18 06:19:34;;;;;;;31.30;5.90;;;;;;;7.34;100.00;102770.25;5009859;28;20046;-75
2021/11/18 06:22:00;;;;;;;22.92;4.10;;;;;;;7.34;100.00;102764.09;5015575;28;20030;-75
2021/11/18 06:24:26;;;;;;;31.88;6.07;;;;;;;7.31;100.00;102770.06;5016723;28;20111;-75
2021/11/18 06:26:55;;;;;;;33.30;6.00;;;;;;;7.26;100.00;102772.41;5016630;28;20450;-75
2021/11/18 06:29:22;;;;;;;32.63;5.55;;;;;;;7.27;100.00;102775.94;5014492;28;20026;-73
2021/11/18 06:31:49;;;;;;;26.73;5.63;;;;;;;7.26;100.00;102785.50;5013785;28;20083;-73
2021/11/18 06:34:16;;;;;;;25.50;5.47;;;;;;;7.21;100.00;102783.41;5011934;28;20448;-74
2021/11/18 06:36:43;;;;;;;33.60;5.30;;;;;;;7.17;100.00;102779.69;5015703;28;20080;-74
2021/11/18 06:39:12;;;;;;;38.55;6.22;;;;;;;7.18;100.00;102770.13;5016930;28;20030;-74
2021/11/18 06:41:38;;;;;;;27.38;5.97;;;;;;;7.17;100.00;102766.59;5014198;28;20042;-75
2021/11/18 06:44:04;;;;;;;28.15;5.05;;;;;;;7.18;100.00;102778.88;5015976;28;20343;-75
2021/11/18 06:46:31;;;;;;;30.85;7.30;;;;;;;7.19;100.00;102775.47;5015144;28;20101;-75
2021/11/18 06:48:57;;;;;;;37.72;7.32;;;;;;;7.20;100.00;102776.34;5014572;28;20014;-75
2021/11/18 06:51:24;;;;;;;37.83;6.03;;;;;;;7.23;100.00;102781.75;5013035;28;20084;-75
2021/11/18 06:53:51;;;;;;;32.92;7.32;;;;;;;7.26;100.00;102782.88;5011381;28;20389;-75
2021/11/18 06:56:18;;;;;;;39.70;6.03;;;;;;;7.25;100.00;102791.53;5010856;28;20541;-74
2021/11/18 06:58:43;;;;;;;45.92;5.90;;;;;;;7.27;100.00;102794.28;5013919;28;20034;-74
2021/11/18 07:01:10;;;;;;;35.63;6.13;;;;;;;7.30;100.00;102802.31;5012148;28;20034;-73
2021/11/18 07:03:39;;;;;;;25.88;4.72;;;;;;;7.32;100.00;102807.63;5013980;28;20060;-74
2021/11/18 07:06:09;;;;;;;29.88;5.22;;;;;;;7.38;100.00;102819.38;5014434;28;20168;-77
2021/11/18 07:08:35;;;;;;;37.72;7.43;;;;;;;7.46;100.00;102821.56;5015419;28;20096;-75
2021/11/18 07:11:01;;;;;;;33.30;5.43;;;;;;;7.49;100.00;102833.16;5013794;28;20429;-75
2021/11/18 07:13:29;;;;;;;32.15;5.68;;;;;;;7.52;100.00;102828.09;5013991;28;20038;-75
2021/11/18 07:15:55;;;;;;;26.45;5.50;;;;;;;7.57;100.00;102818.81;5015352;28;20105;-76
2021/11/18 07:18:22;;;;;;;26.13;5.15;;;;;;;7.62;100.00;102824.31;5015435;28;20030;-76
2021/11/18 07:20:49;;;;;;;21.42;4.88;;;;;;;7.66;100.00;102821.06;5012804;28;20050;-75
2021/11/18 07:23:15;;;;;;;26.30;5.15;;;;;;;7.70;100.00;102830.03;5037226;28;20030;-76
2021/11/18 07:25:41;;;;;;;29.42;5.05;;;;;;;7.71;100.00;102845.81;5014300;28;20109;-77
2021/11/18 07:28:07;;;;;;;34.90;5.90;;;;;;;7.74;100.00;102842.50;5015179;28;20155;-77
2021/11/18 07:30:33;;;;;;;31.23;5.25;;;;;;;7.76;100.00;102844.41;5015912;28;20058;-76
2021/11/18 07:32:59;;;;;;;39.28;5.57;;;;;;;7.79;100.00;102832.31;5016572;28;20072;-77
2021/11/18 07:35:26;;;;;;;29.88;6.13;;;;;;;7.76;100.00;102839.16;5016203;28;20478;-77
2021/11/18 07:37:52;;;;;;;35.13;5.95;;;;;;;7.77;100.00;102842.66;5014478;28;20022;-76
2021/11/18 07:40:19;;;;;;;35.22;7.03;;;;;;;7.83;100.00;102844.78;5015936;28;20392;-76
2021/11/18 07:42:46;;;;;;;28.02;5.90;;;;;;;7.87;100.00;102844.16;5016401;28;20382;-77
2021/11/18 07:45:14;;;;;;;30.77;5.00;;;;;;;7.85;100.00;102832.66;5015870;28;20088;-77
2021/11/18 07:47:39;;;;;;;25.48;5.68;;;;;;;7.86;100.00;102829.22;5017035;28;20026;-77
2021/11/18 07:50:06;;;;;;;27.88;6.03;;;;;;;7.89;100.00;102826.78;5008953;28;20480;-77
2021/11/18 07:52:32;;;;;;;32.50;5.68;;;;;;;7.89;100.00;102821.53;5008015;28;20030;-76
2021/11/18 07:54:58;;;;;;;31.15;5.57;;;;;;;7.89;100.00;102824.16;5033311;28;20096;-78
2021/11/18 07:57:23;;;;;;;28.15;6.28;;;;;;;7.88;100.00;102843.31;5014807;28;20022;-78
2021/11/18 07:59:48;;;;;;;31.40;6.35;;;;;;;7.89;100.00;102840.78;5015460;28;20022;-77
2021/11/18 08:02:14;;;;;;;19.73;5.43;;;;;;;7.90;100.00;102847.84;5015528;28;20120;-76
2021/11/18 08:04:39;;;;;;;23.48;5.45;;;;;;;7.94;100.00;102843.69;5015921;28;20087;-77
2021/11/18 08:07:06;;;;;;;22.50;5.00;;;;;;;7.93;100.00;102831.41;5016742;28;20022;-77
2021/11/18 08:09:33;;;;;;;34.47;6.43;;;;;;;7.89;100.00;102824.16;5015495;28;20045;-76
2021/11/18 08:12:04;;;;;;;32.83;5.90;;;;;;;7.88;100.00;102822.34;5015118;28;20022;-77
2021/11/18 08:14:29;;;;;;;29.25;6.15;;;;;;;7.85;100.00;102827.41;5015213;28;20117;-76
2021/11/18 08:16:55;;;;;;;30.15;6.70;;;;;;;7.85;100.00;102825.69;5014857;28;20108;-76
2021/11/18 08:19:21;;;;;;;38.42;6.55;;;;;;;7.86;100.00;102835.38;5014806;28;20050;-75
2021/11/18 08:21:48;;;;;;;28.70;6.40;;;;;;;7.87;100.00;102841.53;5012865;28;20128;-76
2021/11/18 08:24:16;;;;;;;29.67;6.45;;;;;;;7.88;100.00;102845.94;5014676;28;20029;-75
2021/11/18 08:26:44;;;;;;;28.75;6.03;;;;;;;7.89;100.00;102839.88;5015044;28;20042;-76
2021/11/18 08:29:13;;;;;;;29.95;6.13;;;;;;;7.93;100.00;102831.41;5013335;28;20026;-76
2021/11/18 08:31:39;;;;;;;35.50;5.85;;;;;;;7.96;100.00;102836.81;5014614;28;20036;-76
2021/11/18 08:34:05;;;;;;;31.70;5.57;;;;;;;8.00;100.00;102838.78;5013958;28;20089;-76
2021/11/18 08:36:31;;;;;;;27.77;6.28;;;;;;;8.06;100.00;102843.53;5015154;28;20090;-76
2021/11/18 08:38:56;;;;;;;35.13;7.30;;;;;;;8.10;100.00;102832.41;5013666;28;20398;-76
2021/11/18 08:41:22;;;;;;;34.95;6.75;;;;;;;8.21;100.00;102833.03;5015115;28;20038;-77
2021/11/18 08:43:53;;;;;;;25.55;6.38;;;;;;;8.30;100.00;102833.53;5014153;28;20065;-79
2021/11/18 08:46:19;;;;;;;22.00;5.07;;;;;;;8.43;100.00;102815.06;5013639;28;20057;-79
2021/11/18 08:48:46;;;;;;;29.73;6.68;;;;;;;8.60;100.00;102817.81;5015775;28;20437;-79
2021/11/18 08:51:13;;;;;;;36.72;7.72;;;;;;;8.63;100.00;102817.97;5014877;28;20075;-77
2021/11/18 08:53:40;;;;;;;30.90;6.30;;;;;;;8.71;100.00;102816.69;5014580;28;20053;-78
2021/11/18 08:56:07;;;;;;;23.13;5.72;;;;;;;8.69;100.00;102818.31;5029731;28;20038;-77
2021/11/18 08:58:35;;;;;;;26.02;5.97;;;;;;;8.67;100.00;102827.84;5013224;28;20152;-78
2021/11/18 09:01:09;;;;;;;31.98;5.70;;;;;;;8.64;100.00;102829.38;5013250;28;20026;-79
2021/11/18 09:03:36;;;;;;;22.92;5.72;;;;;;;8.61;100.00;102824.84;5014757;28;20029;-78
2021/11/18 09:06:04;;;;;;;38.70;6.93;;;;;;;8.60;100.00;102828.31;5013389;28;20026;-78
2021/11/18 09:08:31;;;;;;;28.90;5.95;;;;;;;8.66;100.00;102831.25;5010209;28;20107;-79
2021/11/18 09:10:57;;;;;;;29.58;6.38;;;;;;;8.72;100.00;102823.75;5014189;28;20053;-79
2021/11/18 09:13:23;;;;;;;32.45;7.63;;;;;;;8.95;100.00;102826.72;5012704;28;20068;-79
2021/11/18 09:15:49;;;;;;;25.70;6.00;;;;;;;9.15;100.00;102832.19;5013448;28;20109;-79
2021/11/18 09:18:15;;;;;;;24.30;6.28;;;;;;;9.32;100.00;102834.00;5012628;28;20128;-79
2021/11/18 09:20:42;;;;;;;33.63;5.90;;;;;;;9.50;100.00;102830.56;5014098;28;20117;-78
2021/11/18 09:23:09;;;;;;;33.13;6.00;;;;;;;9.72;100.00;102828.22;5013767;28;20032;-77
2021/11/18 09:25:40;;;;;;;23.48;5.72;;;;;;;9.96;100.00;102830.31;5014551;28;20037;-77
2021/11/18 09:28:07;;;;;;;27.95;5.90;;;;;;;10.21;100.00;102831.56;5011754;28;20719;-77
2021/11/18 09:30:41;;;;;;;24.73;5.40;;;;;;;10.37;99.37;102817.47;5013109;28;20030;-76
2021/11/18 09:33:07;;;;;;;21.00;5.88;;;;;;;10.54;97.97;102820.91;5013437;28;20034;-77
2021/11/18 09:35:40;;;;;;;30.30;5.13;;;;;;;10.65;96.73;102817.09;5012417;28;20033;-78
2021/11/18 09:38:08;;;;;;;26.07;5.67;;;;;;;10.90;96.04;102811.22;5011944;28;20030;-78
2021/11/18 09:40:43;;;;;;;25.70;5.10;;;;;;;10.94;94.93;102822.81;5010290;28;20026;-77
2021/11/18 09:43:30;;;;;;;20.17;4.95;;;;;;;11.17;93.93;102816.00;5012498;28;20053;-77
2021/11/18 09:46:13;;;;;;;24.10;5.40;;;;;;;11.38;92.57;102826.63;5025760;28;20037;-77
2021/11/18 09:49:24;;;;;;;30.20;5.07;;;;;;;11.65;91.51;102839.22;5013551;28;20026;-77
2021/11/18 09:52:10;;;;;;;25.92;4.60;;;;;;;11.95;89.76;102833.50;4984849;28;20091;-78
2021/11/18 09:54:58;;;;;;;15.25;4.63;;;;;;;12.24;88.72;102844.41;5012321;28;20083;-78
2021/11/18 09:58:01;;;;;;;33.30;5.32;;;;;;;12.44;87.78;102839.97;5025419;28;20022;-78
2021/11/18 10:00:38;;;;;;;27.60;4.93;;;;;;;12.62;85.92;102838.06;5013192;28;20490;-78
2021/11/18 10:03:31;;;;;;;33.88;4.95;;;;;;;12.75;85.29;102843.81;5013213;28;20050;-77
2021/11/18 10:06:24;;;;;;;27.42;5.15;;;;;;;12.99;84.97;102836.88;5010625;28;20101;-78
2021/11/18 10:08:55;;;;;;;29.00;5.25;;;;;;;13.31;83.79;102842.47;5008901;28;20474;-78
2021/11/18 10:11:25;;;;;;;19.83;5.20;;;;;;;13.35;82.05;102827.63;5012036;28;20073;-78
2021/11/18 10:14:06;;;;;;;22.52;5.25;;;;;;;13.36;82.34;102833.84;5013615;28;20034;-78
2021/11/18 10:16:44;;;;;;;27.25;4.63;;;;;;;13.12;82.63;102829.41;5009908;28;20061;-77
2021/11/18 10:19:26;;;;;;;22.00;5.20;;;;;;;13.44;81.72;102829.72;5013519;28;20048;-77
2021/11/18 10:21:51;;;;;;;18.77;4.57;;;;;;;13.30;82.15;102832.72;5012096;28;20377;-78
2021/11/18 10:24:23;;;;;;;23.55;5.18;;;;;;;13.43;81.43;102831.50;5028619;28;20036;-77
2021/11/18 10:26:56;;;;;;;26.13;5.50;;;;;;;13.77;79.01;102822.13;5012075;28;20025;-78
2021/11/18 10:29:28;;;;;;;21.45;5.05;;;;;;;14.14;78.42;102828.66;5010856;28;20033;-76
2021/11/18 10:32:09;;;;;;;27.77;6.30;;;;;;;14.02;78.32;102820.31;5013062;28;20532;-79
2021/11/18 10:35:01;;;;;;;22.77;4.63;;;;;;;14.37;77.82;102819.72;5012490;28;20048;-77
2021/11/18 10:37:39;;;;;;;19.45;4.65;;;;;;;14.48;76.34;102813.88;5011988;28;20034;-77
2021/11/18 10:40:15;;;;;;;22.17;4.60;;;;;;;14.54;75.81;102817.59;5012689;28;20040;-79
2021/11/18 10:42:43;;;;;;;25.70;4.95;;;;;;;14.83;75.75;102800.88;5010400;28;20025;-77
2021/11/18 10:45:12;;;;;;;28.48;4.53;;;;;;;15.06;75.29;102803.34;5011138;28;20125;-77
2021/11/18 10:47:58;;;;;;;26.65;6.03;;;;;;;15.59;73.63;102811.00;5011422;28;20041;-77
2021/11/18 10:50:44;;;;;;;27.02;5.00;;;;;;;15.43;73.13;102808.81;5027039;28;20382;-76
2021/11/18 10:53:21;;;;;;;24.35;4.38;;;;;;;15.16;72.94;102801.84;5010664;28;20026;-77
2021/11/18 10:56:01;;;;;;;25.55;5.30;;;;;;;14.92;73.21;102791.41;5012966;28;20315;-78
2021/11/18 10:58:26;;;;;;;24.23;4.32;;;;;;;14.75;74.98;102791.81;5028640;28;20030;-77
2021/11/18 11:00:56;;;;;;;20.75;4.40;;;;;;;14.55;74.79;102777.00;5016067;28;20032;-77
2021/11/18 11:03:34;;;;;;;23.60;5.45;;;;;;;14.53;75.85;102784.00;4999415;28;20026;-78
2021/11/18 11:06:22;;;;;;;27.40;5.32;;;;;;;14.66;75.71;102775.63;5016057;28;20040;-77
2021/11/18 11:09:13;;;;;;;23.02;4.63;;;;;;;14.79;75.52;102775.13;5016023;28;20042;-76
2021/11/18 11:12:03;;;;;;;27.52;4.88;;;;;;;14.82;75.29;102761.97;5015892;28;20022;-77
2021/11/18 11:14:47;;;;;;;23.30;4.45;;;;;;;15.13;74.60;102778.78;5012492;28;20056;-77
2021/11/18 11:17:43;;;;;;;21.00;4.20;;;;;;;14.91;73.86;102760.47;5018375;28;20512;-77
2021/11/18 11:20:19;;;;;;;25.25;4.47;;;;;;;14.75;73.98;102764.41;5014028;28;20049;-76
2021/11/18 11:22:57;;;;;;;26.33;4.80;;;;;;;14.83;74.31;102770.84;5014812;28;20037;-76
2021/11/18 11:25:54;;;;;;;19.92;4.03;;;;;;;14.88;73.97;102770.97;5012977;28;20112;-76